Time;durP1;ratioP1;P1;durP2;ratioP2;P2;SDS_P1;SDS_P2;PMS_P1;PMS_P2;Temp;Humidity;BMP_temperature;BMP_pressure;BME280_temperature;BME280_humidity;BME280_pressure;Samples;Min_cycle;Max_cycle;Signal;HPM_P1;HPM_P2
2023/03/27 00:01:52;;;;;;;3.35;0.50;;;3.10;99.90;;;;;;5058877;28;20074;-83
2023/03/27 00:04:18;;;;;;;3.00;0.60;;;3.00;99.90;;;;;;5063846;28;20556;-83
2023/03/27 00:06:44;;;;;;;3.03;0.68;;;3.00;99.90;;;;;;5064737;28;20028;-83
2023/03/27 00:09:10;;;;;;;6.22;0.65;;;2.90;99.90;;;;;;5058853;28;20123;-81
2023/03/27 00:11:36;;;;;;;2.40;0.60;;;2.90;99.90;;;;;;5065944;28;20024;-82
2023/03/27 00:14:03;;;;;;;2.72;0.60;;;2.90;99.90;;;;;;5059808;28;20102;-82
2023/03/27 00:16:29;;;;;;;6.20;0.90;;;2.80;99.90;;;;;;5064352;28;20439;-81
2023/03/27 00:18:55;;;;;;;2.72;0.60;;;2.80;99.90;;;;;;5058112;28;20055;-82
2023/03/27 00:21:21;;;;;;;4.13;1.00;;;2.80;99.90;;;;;;5079240;28;20563;-82
2023/03/27 00:23:47;;;;;;;4.72;0.80;;;2.70;99.90;;;;;;5065661;28;20032;-81
2023/03/27 00:26:14;;;;;;;3.10;0.90;;;2.70;99.90;;;;;;5062096;28;20047;-82
2023/03/27 00:28:40;;;;;;;4.32;0.90;;;2.70;99.90;;;;;;5060124;28;20163;-83
2023/03/27 00:31:13;;;;;;;4.65;0.77;;;2.70;99.90;;;;;;5058581;28;20115;-81
2023/03/27 00:33:38;;;;;;;3.42;1.02;;;2.60;99.90;;;;;;5065846;28;20316;-82
2023/03/27 00:36:04;;;;;;;3.63;0.80;;;2.70;99.90;;;;;;5065183;28;20020;-82
2023/03/27 00:38:31;;;;;;;2.72;1.17;;;2.60;99.90;;;;;;5064351;28;20389;-81
2023/03/27 00:40:56;;;;;;;3.03;0.75;;;2.60;99.90;;;;;;5065543;28;20111;-81
2023/03/27 00:43:32;;;;;;;5.93;0.77;;;2.60;99.90;;;;;;5071243;28;20127;-81
2023/03/27 00:46:01;;;;;;;2.65;0.70;;;2.60;99.90;;;;;;5065520;28;20115;-83
2023/03/27 00:48:29;;;;;;;5.32;0.73;;;2.60;99.90;;;;;;5065359;28;20033;-82
2023/03/27 00:50:56;;;;;;;4.00;0.60;;;2.60;99.90;;;;;;5058627;28;20066;-82
2023/03/27 00:53:25;;;;;;;3.35;0.77;;;2.50;99.90;;;;;;5081502;28;20074;-84
2023/03/27 00:55:53;;;;;;;5.18;0.70;;;2.50;99.90;;;;;;5058256;28;20020;-84
2023/03/27 00:58:24;;;;;;;2.97;0.68;;;2.50;99.90;;;;;;5065241;28;20659;-83
2023/03/27 01:00:53;;;;;;;3.05;0.73;;;2.50;99.90;;;;;;5065106;28;20386;-82
2023/03/27 01:03:19;;;;;;;4.15;0.60;;;2.50;99.90;;;;;;5057408;28;20059;-83
2023/03/27 01:05:46;;;;;;;3.17;0.70;;;2.40;99.90;;;;;;5064645;28;20498;-82
2023/03/27 01:08:13;;;;;;;3.13;0.75;;;2.40;99.90;;;;;;5064022;28;20036;-82
2023/03/27 01:11:04;;;;;;;4.07;0.60;;;2.40;99.90;;;;;;5065003;28;20760;-83
2023/03/27 01:13:50;;;;;;;3.45;0.65;;;2.40;99.90;;;;;;5059201;28;20032;-84
2023/03/27 01:16:36;;;;;;;3.80;0.68;;;2.40;99.90;;;;;;5056320;28;20055;-82
2023/03/27 01:19:37;;;;;;;2.65;0.60;;;2.40;99.90;;;;;;5080073;28;20062;-83
2023/03/27 01:22:23;;;;;;;2.25;0.60;;;2.30;99.90;;;;;;5064172;28;20035;-81
2023/03/27 01:25:30;;;;;;;2.28;0.60;;;2.30;99.90;;;;;;5062598;28;20020;-82
2023/03/27 01:28:20;;;;;;;3.10;0.70;;;2.30;99.90;;;;;;5059806;28;20517;-82
2023/03/27 01:31:27;;;;;;;2.70;0.60;;;2.20;99.90;;;;;;5063791;28;20028;-83
2023/03/27 01:34:03;;;;;;;4.15;0.60;;;2.20;99.90;;;;;;5060797;28;20033;-83
2023/03/27 01:36:46;;;;;;;2.17;0.70;;;2.20;99.90;;;;;;5062634;28;20327;-83
2023/03/27 01:39:34;;;;;;;3.80;0.70;;;2.20;99.90;;;;;;5061157;28;20033;-81
2023/03/27 01:42:03;;;;;;;3.20;0.70;;;2.20;99.90;;;;;;5061362;28;20446;-81
2023/03/27 01:44:52;;;;;;;5.38;0.68;;;2.20;99.90;;;;;;5063722;28;22276;-81
2023/03/27 01:47:31;;;;;;;1.27;0.50;;;2.20;99.90;;;;;;5063383;28;20511;-82
2023/03/27 01:50:29;;;;;;;7.82;1.20;;;2.20;99.90;;;;;;5079640;28;20025;-81
2023/03/27 01:53:02;;;;;;;3.08;0.80;;;2.30;99.90;;;;;;5056311;28;20037;-83
2023/03/27 01:55:33;;;;;;;4.05;0.95;;;2.40;99.90;;;;;;5057267;28;20028;-84
2023/03/27 01:58:28;;;;;;;5.30;0.90;;;2.60;99.90;;;;;;5063582;28;20036;-80
2023/03/27 02:01:00;;;;;;;3.50;0.80;;;2.70;99.90;;;;;;5062622;28;20048;-81
2023/03/27 02:03:34;;;;;;;2.60;0.70;;;2.70;99.90;;;;;;5064353;28;20052;-80
2023/03/27 02:06:09;;;;;;;3.97;0.90;;;2.80;99.90;;;;;;5064600;28;20029;-81
2023/03/27 02:08:53;;;;;;;4.78;1.25;;;2.90;99.90;;;;;;5065537;28;20028;-82
2023/03/27 02:11:23;;;;;;;2.88;1.10;;;3.00;99.90;;;;;;5063563;28;20025;-83
2023/03/27 02:14:00;;;;;;;8.57;2.03;;;3.10;99.90;;;;;;5065319;28;20079;-82
2023/03/27 02:16:32;;;;;;;7.25;1.30;;;3.10;99.90;;;;;;5064127;28;20025;-81
2023/03/27 02:19:07;;;;;;;5.72;1.17;;;3.10;99.90;;;;;;5064563;28;20033;-83
2023/03/27 02:21:32;;;;;;;6.15;1.20;;;3.20;99.90;;;;;;5060598;28;20027;-82
2023/03/27 02:24:00;;;;;;;6.13;1.00;;;3.20;99.90;;;;;;5064443;28;20033;-83
2023/03/27 02:26:28;;;;;;;7.43;1.05;;;3.30;99.90;;;;;;5058600;28;20021;-83
2023/03/27 02:29:12;;;;;;;3.80;0.80;;;3.30;99.90;;;;;;5064513;28;20028;-82
2023/03/27 02:31:40;;;;;;;;;;;3.30;99.90;;;;;;5078877;28;20032;-81
2023/03/27 02:34:37;;;;;;;4.15;0.70;;;3.20;99.90;;;;;;5060918;28;19920;-81
2023/03/27 02:37:42;;;;;;;5.10;0.77;;;3.20;99.90;;;;;;5060593;28;20025;-82
2023/03/27 02:40:29;;;;;;;2.67;0.90;;;3.10;99.90;;;;;;5063718;28;20496;-83
2023/03/27 02:43:08;;;;;;;1.90;0.35;;;3.10;99.90;;;;;;5063978;28;20040;-82
2023/03/27 02:45:42;;;;;;;2.90;0.68;;;3.10;99.90;;;;;;5065138;28;20036;-82
2023/03/27 02:48:17;;;;;;;4.22;0.70;;;3.00;99.90;;;;;;5063759;28;20414;-82
2023/03/27 02:50:53;;;;;;;1.67;0.63;;;3.00;99.90;;;;;;5056135;28;20035;-82
2023/03/27 02:53:22;;;;;;;2.92;0.60;;;2.90;99.90;;;;;;5056894;28;20032;-81
2023/03/27 02:55:56;;;;;;;4.07;0.57;;;2.80;99.90;;;;;;5063590;28;20028;-81
2023/03/27 02:58:43;;;;;;;;;;;2.80;99.90;;;;;;5056681;28;20025;-81
2023/03/27 03:01:12;;;;;;;2.45;0.50;;;2.70;99.90;;;;;;5062819;28;19927;-81
2023/03/27 03:03:40;;;;;;;4.00;0.57;;;2.60;99.90;;;;;;5060002;28;20098;-83
2023/03/27 03:06:06;;;;;;;3.78;0.93;;;2.60;99.90;;;;;;5068217;28;20036;-81
2023/03/27 03:08:37;;;;;;;4.15;0.57;;;2.50;99.90;;;;;;5081074;28;20020;-82
2023/03/27 03:11:03;;;;;;;2.38;0.60;;;2.50;99.90;;;;;;5066207;28;21279;-82
2023/03/27 03:13:30;;;;;;;1.85;0.40;;;2.50;99.90;;;;;;5066238;28;20039;-82
2023/03/27 03:15:56;;;;;;;2.58;0.50;;;2.40;99.90;;;;;;5065137;28;20036;-82
2023/03/27 03:18:23;;;;;;;3.05;0.47;;;2.40;99.90;;;;;;5078270;28;20045;-82
2023/03/27 03:20:52;;;;;;;2.97;0.40;;;2.30;99.90;;;;;;5055814;28;20062;-80
2023/03/27 03:23:22;;;;;;;2.08;0.40;;;2.30;99.90;;;;;;5062382;28;20143;-82
2023/03/27 03:25:51;;;;;;;2.10;0.50;;;2.20;99.90;;;;;;5062527;28;20066;-81
2023/03/27 03:28:17;;;;;;;3.58;0.60;;;2.20;99.90;;;;;;5062048;28;20031;-81
2023/03/27 03:30:45;;;;;;;2.92;0.57;;;2.20;99.90;;;;;;5062654;28;20458;-81
2023/03/27 03:33:13;;;;;;;3.58;0.60;;;2.10;99.90;;;;;;5059073;28;20024;-82
2023/03/27 03:35:39;;;;;;;3.03;0.98;;;2.10;99.90;;;;;;5059705;28;20024;-81
2023/03/27 03:38:05;;;;;;;3.80;0.68;;;2.20;99.90;;;;;;5062847;28;20039;-83
2023/03/27 03:40:31;;;;;;;1.88;0.40;;;2.20;99.90;;;;;;5063354;28;20650;-82
2023/03/27 03:42:57;;;;;;;2.13;0.50;;;2.20;99.90;;;;;;5058326;28;20111;-81
2023/03/27 03:45:22;;;;;;;4.38;0.70;;;2.30;99.90;;;;;;5063380;28;20175;-81
2023/03/27 03:47:48;;;;;;;1.55;0.50;;;2.40;99.90;;;;;;5064091;28;20067;-82
2023/03/27 03:50:14;;;;;;;3.85;0.52;;;2.60;99.90;;;;;;5064401;28;20494;-82
2023/03/27 03:52:40;;;;;;;4.18;0.65;;;2.70;99.90;;;;;;5065002;28;20024;-81
2023/03/27 03:55:08;;;;;;;4.13;0.80;;;2.70;99.90;;;;;;5065306;28;20070;-81
2023/03/27 03:57:35;;;;;;;2.60;0.65;;;2.80;99.90;;;;;;5058856;28;20048;-82
2023/03/27 04:00:01;;;;;;;4.35;0.90;;;2.80;99.90;;;;;;5066224;28;20028;-81
2023/03/27 04:02:27;;;;;;;3.42;0.60;;;2.90;99.90;;;;;;5065672;28;20028;-82
2023/03/27 04:04:57;;;;;;;2.63;0.88;;;2.90;99.90;;;;;;5058408;28;20048;-83
2023/03/27 04:07:23;;;;;;;3.30;0.60;;;2.90;99.90;;;;;;5064247;28;20033;-81
2023/03/27 04:09:50;;;;;;;2.00;0.77;;;3.00;99.90;;;;;;5063952;28;20094;-83
2023/03/27 04:12:16;;;;;;;2.25;0.77;;;2.90;99.90;;;;;;5066353;28;20031;-83
2023/03/27 04:14:42;;;;;;;2.20;0.70;;;2.90;99.90;;;;;;5067460;28;20086;-82
2023/03/27 04:17:08;;;;;;;1.95;0.50;;;2.90;99.90;;;;;;5062307;28;20024;-82
2023/03/27 04:19:34;;;;;;;1.92;0.35;;;2.90;99.90;;;;;;5064296;28;20972;-83
2023/03/27 04:22:03;;;;;;;1.67;0.30;;;2.90;99.90;;;;;;5066644;28;20052;-84
2023/03/27 04:24:32;;;;;;;3.00;0.50;;;2.90;99.90;;;;;;5058705;28;20115;-84
2023/03/27 04:26:59;;;;;;;1.38;0.43;;;2.80;99.90;;;;;;5064062;28;20027;-82
2023/03/27 04:29:29;;;;;;;1.42;0.32;;;2.80;99.90;;;;;;5060898;28;20488;-84
2023/03/27 04:31:56;;;;;;;1.15;0.30;;;2.60;99.90;;;;;;5067634;28;20039;-84
2023/03/27 04:34:23;;;;;;;3.45;0.80;;;2.50;99.90;;;;;;5064854;28;20036;-84
2023/03/27 04:36:51;;;;;;;1.40;0.60;;;2.40;99.90;;;;;;5060555;28;20542;-82
2023/03/27 04:39:18;;;;;;;1.33;0.40;;;2.40;99.90;;;;;;5066465;28;20040;-83
2023/03/27 04:41:48;;;;;;;0.50;0.30;;;2.30;99.90;;;;;;5063352;28;20115;-84
2023/03/27 04:44:16;;;;;;;0.50;0.20;;;2.20;99.90;;;;;;5066160;28;20060;-84
2023/03/27 04:46:43;;;;;;;0.30;0.20;;;2.20;99.90;;;;;;5086710;28;20029;-84
2023/03/27 04:49:09;;;;;;;0.77;0.20;;;2.10;99.90;;;;;;5064539;28;20023;-84
2023/03/27 04:51:34;;;;;;;0.20;0.10;;;2.00;99.90;;;;;;5069252;28;20021;-83
2023/03/27 04:54:03;;;;;;;0.70;0.30;;;2.00;99.90;;;;;;5068676;28;20036;-85
2023/03/27 04:56:29;;;;;;;0.47;0.20;;;1.90;99.90;;;;;;5084388;28;20093;-84
2023/03/27 04:58:55;;;;;;;1.23;0.25;;;1.90;99.90;;;;;;5066851;28;20037;-84
2023/03/27 05:01:21;;;;;;;0.45;0.17;;;1.80;99.90;;;;;;5067082;28;20028;-83
2023/03/27 05:03:48;;;;;;;1.23;0.22;;;1.80;99.90;;;;;;5067319;28;20052;-83
2023/03/27 05:06:14;;;;;;;0.90;0.30;;;1.80;99.90;;;;;;5061278;28;20040;-83
2023/03/27 05:08:40;;;;;;;0.75;0.40;;;1.70;99.90;;;;;;5072304;28;20024;-84
2023/03/27 05:11:06;;;;;;;1.05;0.25;;;1.70;99.90;;;;;;5066438;28;20359;-83
2023/03/27 05:13:32;;;;;;;1.23;0.43;;;1.70;99.90;;;;;;5066675;28;20345;-84
2023/03/27 05:15:57;;;;;;;0.57;0.52;;;1.70;99.90;;;;;;5080998;28;20087;-82
2023/03/27 05:18:23;;;;;;;0.43;0.30;;;1.70;99.90;;;;;;5058858;28;20033;-85
2023/03/27 05:20:49;;;;;;;2.63;0.50;;;1.70;99.90;;;;;;5063990;28;20054;-84
2023/03/27 05:23:15;;;;;;;0.40;0.30;;;1.60;99.90;;;;;;5061402;28;20032;-84
2023/03/27 05:25:41;;;;;;;0.60;0.30;;;1.60;99.90;;;;;;5065540;28;20024;-84
2023/03/27 05:28:07;;;;;;;0.63;0.30;;;1.60;99.90;;;;;;5065134;28;20025;-83
2023/03/27 05:30:33;;;;;;;1.85;0.50;;;1.60;99.90;;;;;;5064997;28;20032;-84
2023/03/27 05:32:58;;;;;;;0.85;0.47;;;1.60;99.90;;;;;;5060576;28;20557;-84
2023/03/27 05:35:26;;;;;;;1.50;0.50;;;1.60;99.90;;;;;;5063610;28;20123;-82
2023/03/27 05:37:53;;;;;;;2.88;0.43;;;1.60;99.90;;;;;;5065090;28;20025;-83
2023/03/27 05:40:23;;;;;;;1.52;0.40;;;1.60;99.90;;;;;;5079872;28;20114;-85
2023/03/27 05:42:50;;;;;;;1.45;0.65;;;1.60;99.90;;;;;;5066373;28;20017;-84
2023/03/27 05:45:16;;;;;;;3.25;1.02;;;1.60;99.90;;;;;;5066104;28;22259;-83
2023/03/27 05:47:52;;;;;;;2.28;0.50;;;1.60;99.90;;;;;;5060379;28;20020;-83
2023/03/27 05:50:21;;;;;;;0.88;0.52;;;1.60;99.90;;;;;;5062031;28;20032;-83
2023/03/27 05:52:46;;;;;;;0.55;0.30;;;1.70;99.90;;;;;;5082415;28;20103;-84
2023/03/27 05:55:13;;;;;;;1.25;0.60;;;1.70;99.90;;;;;;5062223;28;20185;-83
2023/03/27 05:57:40;;;;;;;2.85;0.70;;;1.70;99.90;;;;;;5065225;28;20589;-86
2023/03/27 06:00:10;;;;;;;1.70;0.70;;;1.70;99.90;;;;;;5065693;28;20111;-84
2023/03/27 06:02:43;;;;;;;2.90;0.75;;;1.70;99.90;;;;;;5064664;28;20037;-85
2023/03/27 06:05:12;;;;;;;1.45;0.80;;;1.70;99.90;;;;;;5057127;28;20497;-83
2023/03/27 06:07:38;;;;;;;2.90;0.80;;;1.80;99.90;;;;;;5050855;28;20020;-83
2023/03/27 06:10:06;;;;;;;3.10;0.90;;;1.80;99.90;;;;;;5057728;28;20034;-84
2023/03/27 06:12:33;;;;;;;3.58;1.15;;;1.80;99.90;;;;;;5054832;28;20028;-85
2023/03/27 06:14:59;;;;;;;3.85;1.30;;;1.80;99.90;;;;;;5055117;28;20027;-84
2023/03/27 06:17:25;;;;;;;4.07;1.15;;;1.90;99.90;;;;;;5057205;28;20028;-83
2023/03/27 06:19:50;;;;;;;4.30;1.38;;;1.90;99.90;;;;;;5060485;28;20393;-83
2023/03/27 06:22:21;;;;;;;4.03;1.10;;;2.00;99.90;;;;;;5058215;28;20021;-81
2023/03/27 06:24:47;;;;;;;4.10;1.30;;;2.10;99.90;;;;;;5078618;28;20032;-82
2023/03/27 06:27:13;;;;;;;3.35;1.20;;;2.00;99.90;;;;;;5061270;28;20490;-82
2023/03/27 06:29:39;;;;;;;2.58;1.20;;;2.10;99.90;;;;;;5060423;28;20629;-83
2023/03/27 06:32:05;;;;;;;3.97;1.33;;;2.10;99.90;;;;;;5062236;28;20029;-84
2023/03/27 06:34:30;;;;;;;3.55;1.40;;;2.20;99.90;;;;;;5054860;28;20028;-82
2023/03/27 06:36:58;;;;;;;2.38;1.08;;;2.20;99.90;;;;;;5053095;28;20025;-82
2023/03/27 06:39:26;;;;;;;3.03;0.98;;;2.20;99.90;;;;;;5060563;28;20040;-82
2023/03/27 06:41:52;;;;;;;3.65;0.90;;;2.30;99.90;;;;;;5061832;28;20088;-82
2023/03/27 06:44:17;;;;;;;3.10;1.00;;;2.30;99.90;;;;;;5061486;28;20071;-82
2023/03/27 06:46:43;;;;;;;3.97;1.00;;;2.40;99.90;;;;;;5062201;28;20124;-84
2023/03/27 06:49:09;;;;;;;5.80;1.30;;;2.50;99.90;;;;;;5061139;28;20067;-84
2023/03/27 06:51:34;;;;;;;5.07;1.45;;;2.60;99.90;;;;;;5055236;28;20021;-85
2023/03/27 06:54:00;;;;;;;5.07;1.42;;;2.60;99.90;;;;;;5062183;28;20036;-83
2023/03/27 06:56:26;;;;;;;2.58;1.00;;;2.70;99.90;;;;;;5061350;28;20025;-82
2023/03/27 06:58:51;;;;;;;4.57;1.10;;;2.80;99.90;;;;;;5077702;28;20245;-83
2023/03/27 07:01:17;;;;;;;2.25;1.00;;;2.80;99.90;;;;;;5055108;28;20035;-84
2023/03/27 07:03:42;;;;;;;3.20;1.08;;;2.90;99.90;;;;;;5056300;28;20436;-81
2023/03/27 07:06:08;;;;;;;4.75;0.93;;;3.00;99.90;;;;;;5056476;28;20017;-82
2023/03/27 07:08:34;;;;;;;3.05;1.05;;;3.00;99.90;;;;;;5061688;28;20574;-82
2023/03/27 07:10:59;;;;;;;4.53;0.90;;;3.10;99.90;;;;;;5060073;28;20077;-83
2023/03/27 07:13:26;;;;;;;3.88;1.40;;;3.20;99.90;;;;;;5056329;28;20573;-82
2023/03/27 07:15:53;;;;;;;4.53;1.20;;;3.20;99.90;;;;;;5057206;28;20115;-82
2023/03/27 07:18:20;;;;;;;5.88;1.30;;;3.30;99.90;;;;;;5060925;28;20039;-83
2023/03/27 07:20:47;;;;;;;4.78;1.38;;;3.30;99.90;;;;;;5059282;28;20082;-82
2023/03/27 07:23:12;;;;;;;6.97;1.23;;;3.40;99.90;;;;;;5058955;28;20554;-81
2023/03/27 07:25:38;;;;;;;5.38;1.30;;;3.50;99.90;;;;;;5067772;28;20060;-84
2023/03/27 07:28:09;;;;;;;7.38;1.40;;;3.60;99.90;;;;;;5066922;28;20020;-83
2023/03/27 07:30:36;;;;;;;4.43;1.58;;;3.70;99.90;;;;;;5067121;28;20036;-83
2023/03/27 07:33:03;;;;;;;8.10;1.77;;;3.80;99.90;;;;;;5063153;28;20017;-81
2023/03/27 07:35:28;;;;;;;8.25;2.10;;;3.90;99.90;;;;;;5065053;28;20028;-82
2023/03/27 07:37:55;;;;;;;6.05;1.77;;;3.90;99.90;;;;;;5066297;28;20036;-83
2023/03/27 07:40:21;;;;;;;5.40;1.40;;;3.80;99.90;;;;;;5066884;28;20453;-85
2023/03/27 07:42:48;;;;;;;7.97;1.50;;;3.90;99.90;;;;;;5085347;28;20028;-84
2023/03/27 07:45:15;;;;;;;4.78;1.33;;;3.90;99.90;;;;;;5067322;28;20039;-85
2023/03/27 07:47:41;;;;;;;4.38;1.42;;;4.00;99.90;;;;;;5063823;28;20137;-84
2023/03/27 07:50:10;;;;;;;6.15;1.77;;;4.00;99.90;;;;;;5066916;28;20028;-83
2023/03/27 07:52:39;;;;;;;6.70;1.45;;;4.10;99.90;;;;;;5066453;28;20025;-84
2023/03/27 07:55:11;;;;;;;4.85;1.55;;;4.10;99.90;;;;;;5065589;28;20024;-83
2023/03/27 07:57:43;;;;;;;3.65;1.20;;;4.20;99.90;;;;;;5067010;28;20428;-85
2023/03/27 08:00:10;;;;;;;5.78;1.67;;;4.30;99.90;;;;;;5058915;28;20045;-84
2023/03/27 08:02:39;;;;;;;8.55;1.90;;;4.30;99.90;;;;;;5071178;28;20074;-83
2023/03/27 08:05:07;;;;;;;4.45;1.20;;;4.30;99.90;;;;;;5065586;28;20524;-82
2023/03/27 08:07:34;;;;;;;8.93;1.80;;;4.40;99.90;;;;;;5057996;28;20046;-84
2023/03/27 08:09:59;;;;;;;8.18;1.50;;;4.50;99.90;;;;;;5079623;28;20037;-82
2023/03/27 08:12:25;;;;;;;7.68;1.73;;;4.50;99.90;;;;;;5063624;28;20498;-82
2023/03/27 08:14:53;;;;;;;6.95;1.70;;;4.60;99.90;;;;;;5064047;28;20070;-82
2023/03/27 08:17:18;;;;;;;9.98;1.60;;;4.60;99.90;;;;;;5062599;28;20076;-81
2023/03/27 08:19:45;;;;;;;4.75;1.20;;;4.70;99.90;;;;;;5057784;28;20555;-82
2023/03/27 08:22:11;;;;;;;6.95;1.60;;;4.70;99.90;;;;;;5061992;28;20028;-83
2023/03/27 08:24:36;;;;;;;6.80;1.25;;;4.80;99.90;;;;;;5059424;28;20016;-82
2023/03/27 08:27:02;;;;;;;4.15;1.25;;;4.90;99.90;;;;;;5053558;28;20789;-82
2023/03/27 08:29:28;;;;;;;5.93;1.42;;;4.90;99.90;;;;;;5052425;28;20032;-83
2023/03/27 08:31:54;;;;;;;4.82;1.10;;;4.90;99.90;;;;;;5064340;28;20062;-82
2023/03/27 08:34:20;;;;;;;5.70;1.20;;;5.00;99.90;;;;;;5063987;28;20111;-82
2023/03/27 08:36:45;;;;;;;5.70;1.20;;;5.10;99.90;;;;;;5064325;28;22327;-84
2023/03/27 08:39:11;;;;;;;4.50;1.00;;;5.30;99.90;;;;;;5064049;28;20066;-83
2023/03/27 08:41:47;;;;;;;4.60;1.23;;;5.40;99.90;;;;;;5062600;28;20375;-82
2023/03/27 08:44:15;;;;;;;5.10;0.90;;;5.60;99.90;;;;;;5079617;28;20035;-85
2023/03/27 08:46:50;;;;;;;8.98;2.05;;;5.70;99.90;;;;;;5079529;28;20059;-85
2023/03/27 08:49:18;;;;;;;2.65;1.08;;;5.90;99.90;;;;;;5064390;28;20040;-82
2023/03/27 08:51:47;;;;;;;9.45;1.30;;;6.00;99.90;;;;;;5058370;28;20025;-84
2023/03/27 08:54:23;;;;;;;5.13;1.52;;;6.10;99.90;;;;;;5056638;28;20031;-84
2023/03/27 08:56:49;;;;;;;3.22;0.60;;;6.20;99.90;;;;;;5064736;28;20035;-83
2023/03/27 08:59:18;;;;;;;2.38;0.47;;;6.00;99.90;;;;;;5058364;28;20028;-84
2023/03/27 09:02:22;;;;;;;3.90;0.80;;;5.70;99.90;;;;;;5056771;28;20934;-83
2023/03/27 09:05:02;;;;;;;;;;;5.50;99.90;;;;;;5064166;28;20041;-83
2023/03/27 09:07:40;;;;;;;2.90;0.40;;;5.50;99.90;;;;;;5062060;28;20394;-84
2023/03/27 09:10:27;;;;;;;2.05;0.40;;;5.40;99.90;;;;;;5060137;28;20136;-84
2023/03/27 09:13:34;;;;;;;1.45;0.40;;;5.40;99.90;;;;;;5063629;28;20528;-84
2023/03/27 09:16:09;;;;;;;3.85;0.70;;;5.30;99.90;;;;;;5039809;28;20025;-83
2023/03/27 09:18:42;;;;;;;2.75;0.30;;;5.20;99.90;;;;;;5056900;28;20527;-83
2023/03/27 09:21:18;;;;;;;2.20;0.40;;;5.10;99.90;;;;;;5062525;28;20028;-82
2023/03/27 09:23:45;;;;;;;1.67;0.40;;;5.20;99.90;;;;;;5064728;28;20024;-82
2023/03/27 09:26:26;;;;;;;3.05;0.30;;;5.30;99.90;;;;;;5061031;28;20031;-83
2023/03/27 09:29:18;;;;;;;1.95;0.30;;;5.50;99.90;;;;;;5061014;28;20035;-84
2023/03/27 09:31:55;;;;;;;5.57;0.60;;;5.60;99.90;;;;;;5056910;28;20192;-82
2023/03/27 09:34:27;;;;;;;2.05;0.55;;;5.80;99.90;;;;;;5067079;28;20077;-83
2023/03/27 09:36:53;;;;;;;3.42;0.50;;;6.00;99.90;;;;;;5066076;28;20063;-83
2023/03/27 09:39:24;;;;;;;3.35;0.60;;;6.30;99.90;;;;;;5068404;28;20059;-82
2023/03/27 09:41:54;;;;;;;4.57;1.02;;;6.60;99.90;;;;;;5065479;28;20013;-84
2023/03/27 09:44:33;;;;;;;6.85;1.00;;;6.90;99.90;;;;;;5065902;28;20687;-83
2023/03/27 09:47:04;;;;;;;3.75;0.65;;;7.20;99.90;;;;;;5063672;28;20025;-84
2023/03/27 09:49:31;;;;;;;4.68;0.70;;;7.30;99.90;;;;;;5060391;28;20032;-84
2023/03/27 09:51:58;;;;;;;3.25;0.70;;;7.20;99.90;;;;;;5066186;28;20021;-84
2023/03/27 09:54:31;;;;;;;5.15;0.90;;;6.90;99.90;;;;;;5064724;28;20300;-85
2023/03/27 09:57:05;;;;;;;3.97;0.60;;;7.80;99.90;;;;;;5063633;28;20048;-84
2023/03/27 09:59:36;;;;;;;2.28;0.50;;;9.40;99.90;;;;;;5063043;28;20036;-84
2023/03/27 10:02:19;;;;;;;5.03;0.70;;;10.80;99.90;;;;;;5059094;28;20333;-81
2023/03/27 10:04:58;;;;;;;;;;;11.70;99.90;;;;;;5057803;28;20055;-84
2023/03/27 10:07:25;;;;;;;3.58;0.90;;;12.30;99.90;;;;;;5060889;28;20493;-83
2023/03/27 10:10:12;;;;;;;2.95;0.70;;;11.90;99.90;;;;;;5066845;28;20012;-84
2023/03/27 10:12:38;;;;;;;5.18;0.52;;;10.80;99.90;;;;;;5056012;28;20565;-83
2023/03/27 10:15:23;;;;;;;5.07;0.50;;;9.70;99.90;;;;;;5060545;28;20539;-84
2023/03/27 10:17:49;;;;;;;1.95;0.50;;;8.90;99.90;;;;;;5063062;28;20078;-82
2023/03/27 10:20:17;;;;;;;5.05;0.57;;;8.00;99.90;;;;;;5056315;28;20040;-83
2023/03/27 10:22:52;;;;;;;2.17;0.75;;;7.30;99.90;;;;;;5062684;28;20051;-81
2023/03/27 10:25:20;;;;;;;2.72;0.35;;;6.80;99.90;;;;;;5076699;28;20027;-84
2023/03/27 10:27:46;;;;;;;1.27;0.40;;;6.90;99.90;;;;;;5062075;28;20811;-83
2023/03/27 10:30:31;;;;;;;2.30;0.45;;;8.30;99.90;;;;;;5062490;28;20028;-84
2023/03/27 10:32:58;;;;;;;2.65;0.50;;;9.90;99.90;;;;;;5056735;28;20024;-85
2023/03/27 10:35:35;;;;;;;1.52;0.50;;;11.10;99.90;;;;;;5055738;28;20024;-84
2023/03/27 10:38:13;;;;;;;3.90;0.52;;;12.10;99.90;;;;;;5060611;28;20024;-86
2023/03/27 10:40:41;;;;;;;2.75;0.73;;;13.00;99.90;;;;;;5060784;28;20043;-84
2023/03/27 10:43:12;;;;;;;1.48;0.43;;;13.70;99.90;;;;;;5062085;28;20024;-83
2023/03/27 10:45:53;;;;;;;3.75;0.60;;;14.30;99.90;;;;;;5062775;28;20079;-84
2023/03/27 10:48:48;;;;;;;2.47;0.43;;;14.70;99.90;;;;;;5062466;28;20041;-84
2023/03/27 10:51:29;;;;;;;3.33;0.70;;;15.00;99.90;;;;;;5029524;28;20048;-83
2023/03/27 10:54:01;;;;;;;4.00;0.88;;;15.40;99.90;;;;;;5062232;28;20085;-84
2023/03/27 10:56:44;;;;;;;3.13;0.60;;;15.40;99.90;;;;;;5061356;28;20032;-84
2023/03/27 10:59:44;;;;;;;2.72;0.60;;;15.50;99.90;;;;;;5081038;28;20033;-84
2023/03/27 11:02:25;;;;;;;4.35;0.57;;;15.50;99.90;;;;;;5053407;28;20222;-83
2023/03/27 11:05:00;;;;;;;3.33;0.77;;;15.80;99.90;;;;;;5081679;28;20520;-83
2023/03/27 11:07:36;;;;;;;3.22;0.60;;;15.80;99.90;;;;;;5065702;28;20032;-84
2023/03/27 11:10:14;;;;;;;2.50;0.70;;;16.10;99.90;;;;;;5066315;28;20023;-83
2023/03/27 11:12:47;;;;;;;3.38;0.80;;;16.50;99.90;;;;;;5058953;28;20039;-84
2023/03/27 11:15:20;;;;;;;2.92;0.68;;;16.80;99.90;;;;;;5065260;28;20036;-85
2023/03/27 11:18:15;;;;;;;2.95;0.50;;;16.40;99.90;;;;;;5065682;28;20024;-83
2023/03/27 11:20:50;;;;;;;1.30;0.55;;;15.20;99.90;;;;;;5063318;28;20036;-84
2023/03/27 11:23:25;;;;;;;2.97;0.57;;;14.30;99.90;;;;;;5065759;28;20160;-84
2023/03/27 11:25:52;;;;;;;3.47;0.70;;;13.70;99.90;;;;;;5064857;28;20029;-82
2023/03/27 11:28:42;;;;;;;3.28;0.80;;;14.30;99.90;;;;;;5064899;28;20107;-85
2023/03/27 11:31:38;;;;;;;3.75;1.00;;;14.40;99.90;;;;;;5064852;28;20041;-85
2023/03/27 11:34:27;;;;;;;2.78;0.60;;;14.00;99.90;;;;;;5065695;28;20121;-83
2023/03/27 11:37:03;;;;;;;2.45;0.90;;;14.10;99.90;;;;;;5063467;28;20029;-82
2023/03/27 11:39:52;;;;;;;3.65;0.70;;;14.70;99.90;;;;;;5063563;28;20032;-83
2023/03/27 11:42:23;;;;;;;3.92;1.02;;;15.40;99.90;;;;;;5065597;28;20074;-84
2023/03/27 11:44:50;;;;;;;2.85;0.60;;;15.50;99.90;;;;;;5082316;28;20025;-84
2023/03/27 11:47:50;;;;;;;3.80;0.70;;;14.70;99.90;;;;;;5057469;28;20051;-82
2023/03/27 11:50:22;;;;;;;3.38;0.70;;;14.00;99.90;;;;;;5065276;28;20040;-85
2023/03/27 11:53:10;;;;;;;4.28;0.70;;;13.20;99.90;;;;;;5065394;28;20032;-82
2023/03/27 11:55:41;;;;;;;4.93;0.70;;;12.90;99.90;;;;;;5057835;28;20044;-84
2023/03/27 11:58:27;;;;;;;4.13;0.70;;;12.40;99.90;;;;;;5063337;28;20110;-83
2023/03/27 12:01:06;;;;;;;3.17;0.80;;;11.80;99.90;;;;;;5064082;28;20032;-83
2023/03/27 12:04:03;;;;;;;3.03;0.70;;;11.70;99.90;;;;;;5063457;28;20059;-83
2023/03/27 12:06:52;;;;;;;3.83;1.00;;;12.40;99.90;;;;;;5063810;28;20047;-84
2023/03/27 12:09:48;;;;;;;4.78;0.60;;;13.30;99.90;;;;;;5079233;28;20526;-84
2023/03/27 12:12:35;;;;;;;4.30;0.90;;;12.90;99.90;;;;;;5063416;28;20529;-83
2023/03/27 12:15:33;;;;;;;5.63;1.00;;;12.10;99.90;;;;;;5064430;28;20115;-84
2023/03/27 12:18:22;;;;;;;9.18;0.93;;;11.20;99.90;;;;;;5060770;28;20116;-85
2023/03/27 12:21:16;;;;;;;4.95;1.15;;;10.30;99.90;;;;;;5063347;28;20093;-81
2023/03/27 12:24:10;;;;;;;3.00;0.80;;;11.20;99.90;;;;;;5061680;28;20048;-82
2023/03/27 12:26:48;;;;;;;;;;;12.80;99.90;;;;;;5065854;28;20029;-82
2023/03/27 12:29:23;;;;;;;2.35;0.50;;;13.60;99.90;;;;;;5062174;28;19931;-84
2023/03/27 12:32:06;;;;;;;2.28;0.70;;;13.90;99.90;;;;;;5064853;28;20123;-84
2023/03/27 12:34:49;;;;;;;3.70;0.43;;;13.70;99.90;;;;;;5063674;28;20040;-83
2023/03/27 12:37:16;;;;;;;3.23;0.63;;;13.80;99.90;;;;;;5078706;28;20044;-84
2023/03/27 12:39:53;;;;;;;2.65;0.50;;;14.50;99.90;;;;;;5058220;28;20325;-84
2023/03/27 12:42:40;;;;;;;3.60;0.77;;;15.20;99.90;;;;;;5059128;28;20378;-85
2023/03/27 12:45:25;;;;;;;2.60;0.60;;;15.70;99.90;;;;;;5060742;28;20086;-84
2023/03/27 12:48:09;;;;;;;5.07;0.80;;;16.00;99.60;;;;;;5056283;28;20039;-86
2023/03/27 12:50:51;;;;;;;3.00;0.80;;;16.30;99.90;;;;;;5060914;28;20132;-84
2023/03/27 12:53:25;;;;;;;4.22;0.80;;;16.70;99.90;;;;;;5061173;28;20555;-83
2023/03/27 12:56:15;;;;;;;3.58;1.10;;;16.90;98.70;;;;;;5062441;28;20028;-83
2023/03/27 12:58:42;;;;;;;4.45;0.82;;;17.00;98.70;;;;;;5063266;28;20032;-83
2023/03/27 13:01:10;;;;;;;3.08;0.77;;;17.10;98.20;;;;;;5056984;28;20025;-82
2023/03/27 13:03:53;;;;;;;2.75;0.73;;;17.10;97.00;;;;;;5064189;28;20620;-84
2023/03/27 13:06:36;;;;;;;5.38;0.70;;;17.00;96.70;;;;;;5059761;28;20418;-82
2023/03/27 13:09:28;;;;;;;6.43;1.13;;;16.30;95.80;;;;;;5056788;28;20590;-84
2023/03/27 13:12:12;;;;;;;4.45;0.75;;;14.40;97.00;;;;;;5061825;28;20024;-83
2023/03/27 13:15:15;;;;;;;4.13;0.63;;;12.60;99.80;;;;;;5063858;28;20024;-84
2023/03/27 13:17:56;;;;;;;2.92;0.50;;;11.20;99.90;;;;;;5063170;28;20025;-84
2023/03/27 13:20:49;;;;;;;4.97;1.02;;;11.00;99.90;;;;;;5061377;28;20024;-84
2023/03/27 13:23:24;;;;;;;4.10;0.87;;;11.90;99.90;;;;;;5062129;28;20052;-82
2023/03/27 13:26:07;;;;;;;2.97;0.68;;;12.90;99.90;;;;;;5062414;28;20409;-85